sensor_id;sensor_type;location;lat;lon;timestamp;pressure;altitude;pressure_sealevel;temperature;humidity
63582;BME280;49727;51.078;17.066;2023-03-07T00:11:40;98890.22;;;0.50;71.96
63582;BME280;49727;51.078;17.066;2023-03-07T00:26:40;98886.34;;;0.54;72.86
63582;BME280;49727;51.078;17.066;2023-03-07T00:41:41;98880.16;;;0.65;72.89
63582;BME280;49727;51.078;17.066;2023-03-07T00:56:41;98870.09;;;0.60;73.33
63582;BME280;49727;51.078;17.066;2023-03-07T01:11:42;98848.28;;;0.60;73.27
63582;BME280;49727;51.078;17.066;2023-03-07T01:26:42;98830.50;;;0.63;74.00
63582;BME280;49727;51.078;17.066;2023-03-07T01:41:44;98810.19;;;0.65;73.85
63582;BME280;49727;51.078;17.066;2023-03-07T01:56:46;98800.72;;;0.45;74.32
63582;BME280;49727;51.078;17.066;2023-03-07T02:11:47;98796.88;;;0.29;74.44
63582;BME280;49727;51.078;17.066;2023-03-07T02:26:50;98787.50;;;0.17;74.84
63582;BME280;49727;51.078;17.066;2023-03-07T02:41:51;98768.06;;;0.20;75.14
63582;BME280;49727;51.078;17.066;2023-03-07T02:56:54;98750.00;;;-0.03;75.03
63582;BME280;49727;51.078;17.066;2023-03-07T03:11:54;98750.81;;;-0.22;75.86
63582;BME280;49727;51.078;17.066;2023-03-07T03:26:55;98732.06;;;-0.37;76.46
63582;BME280;49727;51.078;17.066;2023-03-07T03:41:56;98720.66;;;-0.46;76.64
63582;BME280;49727;51.078;17.066;2023-03-07T03:56:57;98709.13;;;-0.84;76.65
63582;BME280;49727;51.078;17.066;2023-03-07T04:11:57;98694.19;;;-1.13;77.08
63582;BME280;49727;51.078;17.066;2023-03-07T04:26:58;98692.81;;;-1.17;77.92
63582;BME280;49727;51.078;17.066;2023-03-07T04:41:58;98680.09;;;-0.81;78.20
63582;BME280;49727;51.078;17.066;2023-03-07T04:56:59;98659.50;;;-0.55;78.11
63582;BME280;49727;51.078;17.066;2023-03-07T05:11:59;98641.06;;;-0.53;78.03
63582;BME280;49727;51.078;17.066;2023-03-07T05:26:59;98624.94;;;-0.68;78.32
63582;BME280;49727;51.078;17.066;2023-03-07T05:42:00;98626.44;;;-0.85;78.02
63582;BME280;49727;51.078;17.066;2023-03-07T05:57:00;98594.78;;;-0.62;78.89
63582;BME280;49727;51.078;17.066;2023-03-07T06:12:00;98600.53;;;-0.20;78.62
63582;BME280;49727;51.078;17.066;2023-03-07T06:27:01;98585.63;;;0.01;77.88
63582;BME280;49727;51.078;17.066;2023-03-07T06:42:01;98587.41;;;0.38;77.79
63582;BME280;49727;51.078;17.066;2023-03-07T06:57:02;98560.88;;;1.32;77.72
63582;BME280;49727;51.078;17.066;2023-03-07T07:12:02;98549.25;;;2.06;75.99
63582;BME280;49727;51.078;17.066;2023-03-07T07:27:05;98543.94;;;2.75;74.54
63582;BME280;49727;51.078;17.066;2023-03-07T07:42:06;98538.59;;;3.42;73.49
63582;BME280;49727;51.078;17.066;2023-03-07T07:57:06;98530.75;;;4.15;71.38
63582;BME280;49727;51.078;17.066;2023-03-07T08:12:10;98498.81;;;5.04;70.60
63582;BME280;49727;51.078;17.066;2023-03-07T08:27:10;98492.97;;;5.85;67.51
63582;BME280;49727;51.078;17.066;2023-03-07T08:42:11;98488.63;;;6.73;63.15
63582;BME280;49727;51.078;17.066;2023-03-07T08:57:11;98471.09;;;6.94;60.99
63582;BME280;49727;51.078;17.066;2023-03-07T09:12:11;98462.09;;;12.58;48.72
63582;BME280;49727;51.078;17.066;2023-03-07T09:27:12;98434.09;;;14.74;42.29
63582;BME280;49727;51.078;17.066;2023-03-07T09:42:26;98450.59;;;9.78;43.57
63582;BME280;49727;51.078;17.066;2023-03-07T09:57:33;98452.00;;;8.19;48.03
63582;BME280;49727;51.078;17.066;2023-03-07T10:28:27;98427.97;;;8.27;47.63
63582;BME280;49727;51.078;17.066;2023-03-07T10:43:31;98422.34;;;7.60;48.80
63582;BME280;49727;51.078;17.066;2023-03-07T10:58:32;98433.63;;;6.69;49.78
63582;BME280;49727;51.078;17.066;2023-03-07T11:13:32;98400.75;;;5.90;52.52
63582;BME280;49727;51.078;17.066;2023-03-07T11:28:34;98382.34;;;5.82;52.65
63582;BME280;49727;51.078;17.066;2023-03-07T12:14:38;98347.69;;;6.43;52.19
63582;BME280;49727;51.078;17.066;2023-03-07T12:29:49;98331.47;;;6.31;52.37
63582;BME280;49727;51.078;17.066;2023-03-07T12:45:02;98307.31;;;6.13;52.55
63582;BME280;49727;51.078;17.066;2023-03-07T13:00:09;98309.22;;;8.42;49.78
63582;BME280;49727;51.078;17.066;2023-03-07T14:00:45;98260.88;;;6.53;52.87
63582;BME280;49727;51.078;17.066;2023-03-07T14:16:04;98242.31;;;6.47;53.36
63582;BME280;49727;51.078;17.066;2023-03-07T14:31:21;98244.28;;;6.38;53.18
63582;BME280;49727;51.078;17.066;2023-03-07T15:01:38;98215.34;;;6.08;54.40
63582;BME280;49727;51.078;17.066;2023-03-07T15:16:44;98206.25;;;5.96;54.63
63582;BME280;49727;51.078;17.066;2023-03-07T15:31:50;98198.84;;;5.84;55.16
63582;BME280;49727;51.078;17.066;2023-03-07T15:46:52;98178.63;;;5.76;55.44
63582;BME280;49727;51.078;17.066;2023-03-07T16:01:53;98176.09;;;5.68;55.66
63582;BME280;49727;51.078;17.066;2023-03-07T16:16:57;98160.13;;;5.55;56.35
63582;BME280;49727;51.078;17.066;2023-03-07T16:31:58;98168.22;;;5.53;56.03
63582;BME280;49727;51.078;17.066;2023-03-07T16:47:11;98159.94;;;5.35;56.15
63582;BME280;49727;51.078;17.066;2023-03-07T17:02:17;98167.03;;;5.19;56.77
63582;BME280;49727;51.078;17.066;2023-03-07T17:17:24;98189.22;;;5.03;57.23
63582;BME280;49727;51.078;17.066;2023-03-07T17:32:26;98187.84;;;4.93;57.83
63582;BME280;49727;51.078;17.066;2023-03-07T17:47:27;98195.97;;;4.91;57.99
63582;BME280;49727;51.078;17.066;2023-03-07T18:02:27;98196.28;;;4.88;58.08
63582;BME280;49727;51.078;17.066;2023-03-07T18:17:27;98196.38;;;4.95;57.61
63582;BME280;49727;51.078;17.066;2023-03-07T18:32:28;98178.00;;;4.86;57.69
63582;BME280;49727;51.078;17.066;2023-03-07T18:47:30;98188.75;;;4.85;57.54
63582;BME280;49727;51.078;17.066;2023-03-07T19:02:30;98177.31;;;4.78;57.48
63582;BME280;49727;51.078;17.066;2023-03-07T19:17:30;98189.50;;;4.79;57.27
63582;BME280;49727;51.078;17.066;2023-03-07T19:32:32;98194.13;;;4.77;57.20
63582;BME280;49727;51.078;17.066;2023-03-07T19:47:32;98187.47;;;4.81;57.07
63582;BME280;49727;51.078;17.066;2023-03-07T20:02:32;98186.22;;;4.77;57.08
63582;BME280;49727;51.078;17.066;2023-03-07T20:17:33;98201.13;;;4.69;57.24
63582;BME280;49727;51.078;17.066;2023-03-07T20:32:33;98213.22;;;4.64;57.42
63582;BME280;49727;51.078;17.066;2023-03-07T20:47:34;98213.41;;;4.62;57.41
63582;BME280;49727;51.078;17.066;2023-03-07T21:02:37;98214.78;;;4.58;57.23
63582;BME280;49727;51.078;17.066;2023-03-07T21:17:38;98232.75;;;4.54;57.43
63582;BME280;49727;51.078;17.066;2023-03-07T21:32:39;98285.25;;;4.64;57.65
63582;BME280;49727;51.078;17.066;2023-03-07T21:47:40;98290.31;;;4.04;59.20
63582;BME280;49727;51.078;17.066;2023-03-07T22:02:40;98298.78;;;3.68;60.69
63582;BME280;49727;51.078;17.066;2023-03-07T22:17:41;98306.41;;;3.55;61.57
63582;BME280;49727;51.078;17.066;2023-03-07T22:32:43;98316.31;;;3.45;62.25
63582;BME280;49727;51.078;17.066;2023-03-07T22:47:44;98304.22;;;3.27;63.32
63582;BME280;49727;51.078;17.066;2023-03-07T23:02:45;98326.13;;;3.11;64.20
63582;BME280;49727;51.078;17.066;2023-03-07T23:17:45;98333.41;;;2.93;64.66
63582;BME280;49727;51.078;17.066;2023-03-07T23:32:46;98347.72;;;2.74;65.58
63582;BME280;49727;51.078;17.066;2023-03-07T23:47:46;98365.28;;;2.48;66.32
